createdAt,value
2023-11-27T00:01:40.569Z,11.02
2023-11-27T00:04:09.721Z,16.65
2023-11-27T00:06:38.211Z,12.70
2023-11-27T00:09:06.902Z,14.68
2023-11-27T00:11:35.178Z,19.73
2023-11-27T00:14:04.137Z,18.38
2023-11-27T00:16:32.570Z,18.63
2023-11-27T00:19:01.246Z,20.65
2023-11-27T00:21:29.671Z,19.35
2023-11-27T00:23:58.372Z,19.75
2023-11-27T00:26:27.113Z,17.73
2023-11-27T00:31:27.190Z,16.38
2023-11-27T00:33:57.477Z,18.42
2023-11-27T00:36:27.017Z,15.23
2023-11-27T00:38:56.103Z,13.13
2023-11-27T00:41:24.435Z,12.35
2023-11-27T00:43:53.925Z,14.95
2023-11-27T00:46:22.405Z,12.98
2023-11-27T00:48:51.468Z,14.88
2023-11-27T00:51:19.872Z,12.15
2023-11-27T00:53:48.976Z,12.05
2023-11-27T00:56:17.434Z,13.75
2023-11-27T00:58:46.139Z,13.32
2023-11-27T01:01:16.235Z,18.92
2023-11-27T01:03:45.164Z,15.07
2023-11-27T01:06:15.327Z,15.40
2023-11-27T01:08:44.124Z,14.98
2023-11-27T01:11:13.007Z,17.25
2023-11-27T01:13:41.885Z,12.85
2023-11-27T01:16:10.291Z,14.82
2023-11-27T01:18:39.066Z,14.13
2023-11-27T01:21:07.568Z,15.95
2023-11-27T01:23:36.188Z,11.52
2023-11-27T01:26:04.737Z,16.48
2023-11-27T01:28:38.172Z,11.75
2023-11-27T01:31:06.687Z,12.95
2023-11-27T01:33:35.478Z,13.13
2023-11-27T01:36:04.118Z,14.00
2023-11-27T01:38:33.176Z,12.68
2023-11-27T01:41:01.678Z,11.10
2023-11-27T01:43:30.302Z,10.73
2023-11-27T01:46:18.273Z,11.70
2023-11-27T01:48:47.032Z,14.27
2023-11-27T01:51:15.606Z,16.63
2023-11-27T01:53:45.290Z,12.70
2023-11-27T01:56:14.260Z,12.65
2023-11-27T01:58:43.191Z,12.52
2023-11-27T02:01:11.794Z,14.10
2023-11-27T02:03:40.486Z,15.32
2023-11-27T02:06:09.028Z,16.65
2023-11-27T02:08:37.814Z,12.60
2023-11-27T02:11:06.500Z,13.68
2023-11-27T02:13:35.543Z,13.75
2023-11-27T02:16:04.671Z,11.35
2023-11-27T02:18:34.466Z,13.55
2023-11-27T02:21:04.102Z,14.38
2023-11-27T02:23:33.251Z,12.90
2023-11-27T02:26:02.157Z,14.93
2023-11-27T02:28:30.900Z,11.73
2023-11-27T02:30:59.490Z,11.65
2023-11-27T02:33:28.546Z,13.15
2023-11-27T02:35:57.273Z,14.13
2023-11-27T02:38:26.413Z,13.93
2023-11-27T02:40:54.757Z,13.73
2023-11-27T02:43:23.793Z,12.98
2023-11-27T02:45:52.512Z,10.98
2023-11-27T02:48:21.361Z,12.60
2023-11-27T02:50:49.663Z,11.88
2023-11-27T02:53:18.415Z,11.88
2023-11-27T02:55:46.989Z,15.20
2023-11-27T02:58:16.152Z,9.82
2023-11-27T03:00:45.169Z,14.30
2023-11-27T03:03:14.837Z,11.32
2023-11-27T03:05:43.321Z,10.98
2023-11-27T03:08:14.113Z,14.55
2023-11-27T03:10:42.509Z,12.73
2023-11-27T03:13:12.819Z,13.60
2023-11-27T03:15:41.322Z,15.80
2023-11-27T03:18:10.009Z,14.43
2023-11-27T03:20:39.102Z,12.32
2023-11-27T03:23:08.090Z,13.90
2023-11-27T03:25:36.759Z,13.38
2023-11-27T03:28:05.508Z,12.50
2023-11-27T03:30:33.751Z,11.77
2023-11-27T03:33:02.393Z,12.45
2023-11-27T03:35:30.838Z,14.15
2023-11-27T03:37:59.690Z,14.50
2023-11-27T03:40:28.118Z,11.95
2023-11-27T03:42:56.898Z,15.50
2023-11-27T03:45:25.276Z,13.80
2023-11-27T03:47:54.295Z,13.85
2023-11-27T03:50:25.051Z,13.25
2023-11-27T03:52:55.961Z,14.63
2023-11-27T03:55:25.984Z,15.63
2023-11-27T03:57:54.716Z,14.38
2023-11-27T04:00:23.258Z,14.23
2023-11-27T04:02:52.829Z,14.70
2023-11-27T04:05:21.265Z,15.27
2023-11-27T04:07:49.853Z,17.88
2023-11-27T04:10:19.820Z,14.88
2023-11-27T04:12:48.474Z,17.30
2023-11-27T04:15:18.025Z,15.57
2023-11-27T04:17:46.853Z,17.05
2023-11-27T04:20:18.040Z,19.95
2023-11-27T04:22:47.624Z,16.25
2023-11-27T04:25:17.333Z,16.25
2023-11-27T04:27:46.360Z,18.48
2023-11-27T04:30:14.911Z,15.32
2023-11-27T04:32:46.804Z,14.63
2023-11-27T04:35:15.177Z,17.33
2023-11-27T04:37:43.836Z,11.60
2023-11-27T04:40:15.981Z,15.20
2023-11-27T04:42:44.745Z,17.08
2023-11-27T04:45:13.152Z,15.90
2023-11-27T04:47:42.228Z,17.52
2023-11-27T04:50:10.793Z,16.10
2023-11-27T04:52:39.650Z,14.00
2023-11-27T04:55:09.018Z,14.55
2023-11-27T04:57:38.516Z,15.18
2023-11-27T05:00:07.572Z,11.75
2023-11-27T05:02:36.378Z,16.20
2023-11-27T05:05:05.598Z,18.33
2023-11-27T05:07:34.170Z,13.50
2023-11-27T05:10:02.988Z,15.32
2023-11-27T05:12:33.561Z,13.77
2023-11-27T05:15:03.930Z,17.90
2023-11-27T05:17:33.500Z,16.95
2023-11-27T05:20:02.347Z,15.10
2023-11-27T05:22:31.409Z,14.52
2023-11-27T05:24:59.668Z,15.90
2023-11-27T05:27:28.379Z,14.57
2023-11-27T05:29:57.809Z,14.38
2023-11-27T05:32:28.307Z,17.23
2023-11-27T05:34:57.607Z,17.73
2023-11-27T05:37:26.461Z,15.00
2023-11-27T05:39:56.374Z,16.98
2023-11-27T05:42:28.420Z,17.42
2023-11-27T05:45:01.224Z,15.30
2023-11-27T05:47:32.331Z,18.13
2023-11-27T05:50:00.694Z,21.42
2023-11-27T05:52:29.662Z,18.77
2023-11-27T05:54:58.241Z,15.52
2023-11-27T05:57:26.995Z,16.08
2023-11-27T05:59:55.725Z,25.30
2023-11-27T06:02:24.597Z,18.52
2023-11-27T06:04:53.487Z,18.50
2023-11-27T06:07:22.145Z,18.70
2023-11-27T06:09:50.518Z,17.88
2023-11-27T06:12:20.071Z,16.45
2023-11-27T06:14:48.535Z,15.35
2023-11-27T06:17:17.333Z,19.33
2023-11-27T06:19:45.815Z,15.93
2023-11-27T06:22:14.630Z,18.85
2023-11-27T06:24:43.694Z,19.33
2023-11-27T06:27:12.538Z,17.13
2023-11-27T06:29:41.003Z,21.17
2023-11-27T06:32:09.924Z,17.45
2023-11-27T06:34:38.629Z,20.25
2023-11-27T06:37:32.897Z,19.35
2023-11-27T06:40:01.253Z,17.63
2023-11-27T06:42:31.512Z,16.23
2023-11-27T06:45:02.216Z,14.38
2023-11-27T06:47:32.283Z,19.92
2023-11-27T06:50:00.977Z,18.73
2023-11-27T06:52:30.149Z,18.17
2023-11-27T06:54:58.959Z,17.30
2023-11-27T06:57:28.401Z,15.65
2023-11-27T06:59:56.952Z,18.65
2023-11-27T07:02:27.574Z,17.98
2023-11-27T07:04:55.985Z,19.80
2023-11-27T07:07:24.751Z,18.13
2023-11-27T07:09:57.561Z,19.60
2023-11-27T07:12:26.574Z,12.98
2023-11-27T07:14:54.963Z,17.02
2023-11-27T07:17:23.665Z,17.48
2023-11-27T07:19:52.105Z,16.77
2023-11-27T07:22:20.929Z,18.10
2023-11-27T07:24:52.299Z,20.27
2023-11-27T07:27:21.390Z,17.85
2023-11-27T07:29:49.764Z,19.42
2023-11-27T07:32:18.387Z,17.02
2023-11-27T07:34:46.630Z,20.50
2023-11-27T07:37:15.490Z,17.10
2023-11-27T07:39:46.038Z,20.92
2023-11-27T07:42:16.146Z,20.83
2023-11-27T07:44:44.843Z,20.20
2023-11-27T07:47:14.041Z,25.48
2023-11-27T07:49:48.553Z,20.85
2023-11-27T07:52:18.830Z,17.98
2023-11-27T07:54:50.333Z,20.63
2023-11-27T07:59:49.768Z,16.58
2023-11-27T08:02:18.561Z,18.35
2023-11-27T08:04:47.033Z,20.25
2023-11-27T08:07:15.894Z,24.35
2023-11-27T08:09:47.997Z,22.67
2023-11-27T08:12:17.734Z,20.75
2023-11-27T08:14:46.443Z,23.55
2023-11-27T08:17:15.657Z,19.48
2023-11-27T08:19:44.090Z,21.48
2023-11-27T08:22:12.954Z,21.42
2023-11-27T08:24:41.463Z,20.88
2023-11-27T08:27:10.488Z,21.25
2023-11-27T08:29:39.463Z,17.52
2023-11-27T08:32:08.508Z,41.35
2023-11-27T08:34:39.630Z,79.95
2023-11-27T08:37:11.049Z,22.80
2023-11-27T08:39:40.258Z,17.60
2023-11-27T08:42:08.922Z,21.70
2023-11-27T08:44:37.638Z,18.98
2023-11-27T08:47:07.047Z,39.80
2023-11-27T08:49:35.508Z,181.77
2023-11-27T08:52:04.501Z,390.10
2023-11-27T08:54:33.988Z,175.70
2023-11-27T08:57:02.602Z,31.48
2023-11-27T08:59:31.051Z,335.92
2023-11-27T09:02:00.283Z,27.98
2023-11-27T09:04:28.804Z,69.88
2023-11-27T09:06:57.929Z,26.85
2023-11-27T09:09:26.896Z,76.32
2023-11-27T09:11:57.117Z,156.32
2023-11-27T09:14:25.385Z,197.38
2023-11-27T09:16:56.582Z,78.53
2023-11-27T09:19:25.460Z,136.87
2023-11-27T09:21:55.821Z,49.00
2023-11-27T09:24:24.296Z,26.42
2023-11-27T09:26:53.053Z,20.15
2023-11-27T09:29:21.408Z,18.13
2023-11-27T09:31:51.298Z,51.55
2023-11-27T09:34:19.698Z,18.20
2023-11-27T09:36:56.390Z,19.50
2023-11-27T09:39:31.266Z,20.45
2023-11-27T09:42:00.544Z,19.02
2023-11-27T09:44:29.295Z,31.77
2023-11-27T09:47:16.756Z,20.13
2023-11-27T09:49:51.888Z,20.08
2023-11-27T09:52:21.890Z,20.08
2023-11-27T09:55:02.754Z,20.58
2023-11-27T09:57:36.011Z,16.23
2023-11-27T10:00:08.907Z,20.63
2023-11-27T10:02:37.610Z,15.15
2023-11-27T10:05:06.628Z,20.73
2023-11-27T10:07:39.085Z,14.75
2023-11-27T10:10:11.103Z,14.70
2023-11-27T10:12:45.608Z,17.83
2023-11-27T10:15:18.333Z,18.42
2023-11-27T10:17:49.049Z,20.88
2023-11-27T10:20:20.937Z,15.93
2023-11-27T10:22:49.964Z,13.63
2023-11-27T10:25:18.511Z,15.77
2023-11-27T10:27:47.942Z,14.07
2023-11-27T10:30:26.684Z,15.27
2023-11-27T10:32:55.555Z,14.35
2023-11-27T10:35:26.940Z,18.10
2023-11-27T10:37:56.365Z,16.05
2023-11-27T10:40:28.235Z,16.08
2023-11-27T10:43:02.879Z,15.30
2023-11-27T10:45:34.530Z,16.25
2023-11-27T10:48:04.258Z,17.15
2023-11-27T10:50:34.567Z,15.43
2023-11-27T10:53:07.700Z,17.50
2023-11-27T10:55:39.688Z,17.92
2023-11-27T10:58:11.395Z,16.13
2023-11-27T11:00:48.601Z,15.75
2023-11-27T11:03:24.403Z,17.35
2023-11-27T11:05:55.207Z,14.13
2023-11-27T11:08:28.688Z,17.73
2023-11-27T11:10:59.541Z,17.73
2023-11-27T11:13:29.260Z,20.83
2023-11-27T11:16:37.629Z,14.57
2023-11-27T11:19:18.059Z,11.88
2023-11-27T11:22:16.549Z,12.57
2023-11-27T11:24:59.889Z,12.98
2023-11-27T11:27:47.829Z,34.72
2023-11-27T11:30:16.841Z,31.02
2023-11-27T11:32:46.215Z,17.38
2023-11-27T11:35:15.034Z,16.10
2023-11-27T11:37:51.345Z,19.40
2023-11-27T11:40:20.439Z,19.15
2023-11-27T11:42:49.582Z,25.27
2023-11-27T11:45:26.957Z,13.52
2023-11-27T11:48:00.899Z,26.85
2023-11-27T11:50:35.195Z,25.67
2023-11-27T11:53:11.802Z,22.02
2023-11-27T11:55:41.103Z,15.90
2023-11-27T11:58:18.884Z,13.07
2023-11-27T12:00:49.215Z,28.08
2023-11-27T12:03:23.971Z,23.27
2023-11-27T12:05:56.860Z,13.45
2023-11-27T12:08:29.615Z,12.75
2023-11-27T12:11:00.485Z,17.80
2023-11-27T12:13:38.315Z,13.88
2023-11-27T12:16:15.435Z,11.45
2023-11-27T12:18:48.334Z,14.00
2023-11-27T12:21:25.972Z,16.90
2023-11-27T12:23:55.068Z,12.73
2023-11-27T12:26:26.949Z,10.10
2023-11-27T12:31:29.772Z,12.45
2023-11-27T12:34:04.591Z,12.50
2023-11-27T12:36:37.927Z,10.05
2023-11-27T12:39:12.414Z,15.77
2023-11-27T12:41:47.382Z,11.73
2023-11-27T12:44:25.008Z,12.95
2023-11-27T12:46:59.757Z,13.63
2023-11-27T12:49:35.560Z,13.77
2023-11-27T12:52:13.389Z,12.63
2023-11-27T12:54:41.920Z,14.95
2023-11-27T12:57:34.645Z,16.25
2023-11-27T13:00:04.524Z,11.88
2023-11-27T13:02:45.330Z,12.00
2023-11-27T13:05:14.211Z,15.75
2023-11-27T13:07:45.845Z,13.43
2023-11-27T13:10:14.637Z,12.63
2023-11-27T13:12:50.039Z,13.55
2023-11-27T13:15:25.635Z,11.23
2023-11-27T13:17:58.429Z,13.88
2023-11-27T13:20:29.020Z,12.88
2023-11-27T13:23:03.083Z,15.27
2023-11-27T13:25:38.996Z,13.43
2023-11-27T13:28:19.010Z,13.82
2023-11-27T13:30:56.752Z,13.77
2023-11-27T13:33:28.329Z,14.73
2023-11-27T13:35:59.288Z,13.77
2023-11-27T13:38:30.458Z,13.15
2023-11-27T13:41:03.192Z,15.43
2023-11-27T13:43:32.388Z,19.35
2023-11-27T13:46:01.040Z,14.50
2023-11-27T13:48:35.074Z,16.60
2023-11-27T13:51:17.542Z,17.00
2023-11-27T13:54:26.781Z,14.00
2023-11-27T13:57:01.028Z,14.88
2023-11-27T13:59:36.604Z,16.73
2023-11-27T14:02:12.738Z,21.45
2023-11-27T14:04:56.352Z,15.60
2023-11-27T14:07:29.528Z,16.95
2023-11-27T14:09:59.816Z,15.70
2023-11-27T14:12:39.929Z,17.08
2023-11-27T14:15:27.411Z,17.00
2023-11-27T14:18:18.847Z,17.95
2023-11-27T14:21:15.344Z,17.05
2023-11-27T14:23:55.852Z,17.45
2023-11-27T14:27:04.535Z,18.58
2023-11-27T14:29:39.295Z,20.10
2023-11-27T14:32:09.081Z,20.27
2023-11-27T14:34:39.011Z,20.17
2023-11-27T14:37:28.575Z,19.50
2023-11-27T14:40:16.904Z,19.50
2023-11-27T14:42:46.415Z,16.65
2023-11-27T14:45:23.709Z,18.95
2023-11-27T14:47:52.709Z,22.75
2023-11-27T14:50:33.989Z,21.98
2023-11-27T14:53:02.702Z,18.65
2023-11-27T14:55:34.376Z,18.45
2023-11-27T15:00:37.320Z,20.58
2023-11-27T15:03:13.737Z,23.92
2023-11-27T15:05:46.268Z,25.25
2023-11-27T15:10:44.770Z,20.25
2023-11-27T15:13:13.615Z,23.55
2023-11-27T15:16:10.584Z,22.15
2023-11-27T15:18:53.345Z,21.30
2023-11-27T15:21:22.585Z,19.57
2023-11-27T15:23:51.720Z,22.40
2023-11-27T15:26:20.177Z,27.42
2023-11-27T15:28:50.014Z,29.23
2023-11-27T15:31:18.833Z,27.40
2023-11-27T15:33:48.596Z,32.58
2023-11-27T15:36:23.122Z,28.40
2023-11-27T15:38:53.645Z,27.00
2023-11-27T15:41:22.095Z,35.80
2023-11-27T15:43:53.522Z,29.25
2023-11-27T15:46:23.105Z,27.88
2023-11-27T15:48:53.415Z,28.17
2023-11-27T15:51:25.621Z,34.10
2023-11-27T15:53:55.227Z,48.45
2023-11-27T15:56:25.268Z,38.60
2023-11-27T15:58:55.577Z,35.38
2023-11-27T16:01:25.181Z,27.90
2023-11-27T16:04:06.726Z,24.48
2023-11-27T17:34:48.209Z,50.30
2023-11-27T17:37:19.754Z,49.67
2023-11-27T17:39:48.959Z,44.55
2023-11-27T17:42:18.047Z,44.00
2023-11-27T17:44:46.807Z,50.42
2023-11-27T17:47:19.037Z,52.65
2023-11-27T17:49:49.226Z,45.10
2023-11-27T17:52:18.332Z,47.63
2023-11-27T17:57:45.552Z,51.28
2023-11-27T18:00:45.860Z,44.88
2023-11-27T18:03:18.886Z,46.85
2023-11-27T18:08:32.033Z,45.92
2023-11-27T18:11:15.029Z,53.65
2023-11-27T18:13:53.185Z,68.22
2023-11-27T18:16:45.133Z,74.18
2023-11-27T18:23:27.874Z,87.88
2023-11-27T18:26:15.400Z,96.20
2023-11-27T18:36:31.989Z,217.50
2023-11-27T18:39:14.285Z,176.63
2023-11-27T18:44:32.333Z,172.90
2023-11-27T18:45:36.286Z,156.65
2023-11-27T18:49:15.892Z,148.45
2023-11-27T20:54:43.662Z,30.00
2023-11-27T21:20:35.053Z,45.30
2023-11-27T21:23:04.199Z,54.92
2023-11-27T21:25:57.974Z,45.17
2023-11-27T21:28:31.095Z,44.72
2023-11-27T21:31:02.460Z,33.17
2023-11-27T21:33:32.579Z,31.15
2023-11-27T21:36:01.084Z,27.00
2023-11-27T21:38:30.180Z,50.60
2023-11-27T21:40:59.078Z,58.65
2023-11-27T21:43:28.191Z,58.42
2023-11-27T21:45:56.572Z,66.68
2023-11-27T21:48:29.069Z,58.60
2023-11-27T21:51:01.041Z,55.83
2023-11-27T21:53:29.858Z,44.03
2023-11-27T21:55:58.464Z,47.53
2023-11-27T21:58:27.335Z,38.40
2023-11-27T22:00:56.272Z,31.27
2023-11-27T22:03:25.239Z,44.78
2023-11-27T22:05:53.918Z,47.75
2023-11-27T22:08:50.975Z,43.30
2023-11-27T22:11:29.932Z,164.57
2023-11-27T22:13:59.402Z,140.45
2023-11-27T22:16:28.320Z,93.75
2023-11-27T22:18:58.357Z,77.15
2023-11-27T22:21:29.595Z,80.13
2023-11-27T22:24:00.343Z,72.90
2023-11-27T22:26:30.170Z,73.30
2023-11-27T22:28:59.306Z,59.20
2023-11-27T22:31:31.268Z,58.08
2023-11-27T22:34:02.644Z,59.25
2023-11-27T22:36:35.419Z,87.32
2023-11-27T22:39:08.341Z,196.35
2023-11-27T22:41:44.339Z,122.28
2023-11-27T22:44:15.835Z,123.57
2023-11-27T22:46:45.249Z,67.77
2023-11-27T22:49:18.308Z,50.75
2023-11-27T22:51:46.997Z,40.88
2023-11-27T22:54:19.960Z,48.88
2023-11-27T22:56:53.906Z,46.03
2023-11-27T22:59:29.311Z,70.65
2023-11-27T23:01:58.357Z,72.32
2023-11-27T23:04:28.990Z,64.07
2023-11-27T23:06:58.456Z,82.45
2023-11-27T23:09:27.682Z,68.70
2023-11-27T23:11:56.521Z,79.07
2023-11-27T23:14:25.783Z,55.85
2023-11-27T23:16:54.657Z,58.15
2023-11-27T23:19:28.207Z,48.30
2023-11-27T23:21:58.240Z,46.95
2023-11-27T23:24:29.183Z,53.55
2023-11-27T23:27:18.051Z,57.55
2023-11-27T23:29:47.063Z,48.65
2023-11-27T23:32:15.750Z,50.97
2023-11-27T23:34:45.330Z,40.40
2023-11-27T23:37:17.200Z,47.80
2023-11-27T23:39:49.647Z,44.42
2023-11-27T23:42:18.497Z,44.58
2023-11-27T23:44:47.505Z,46.25
2023-11-27T23:47:16.016Z,43.38
2023-11-27T23:49:45.466Z,45.83
2023-11-27T23:52:14.076Z,55.97
2023-11-27T23:54:42.970Z,53.30
2023-11-27T23:57:16.451Z,111.55
2023-11-27T23:59:45.547Z,87.65
